createdAt,value
2018-06-02T00:00:30.622Z,41.33
2018-06-02T00:02:58.209Z,42.93
2018-06-02T00:05:26.613Z,39.70
2018-06-02T00:07:54.198Z,42.07
2018-06-02T00:10:21.916Z,40.77
2018-06-02T00:12:49.506Z,40.23
2018-06-02T00:15:17.205Z,37.50
2018-06-02T00:17:44.795Z,38.50
2018-06-02T00:20:12.381Z,39.37
2018-06-02T00:22:39.965Z,40.77
2018-06-02T00:25:07.650Z,38.47
2018-06-02T00:27:36.061Z,40.97
2018-06-02T00:30:05.239Z,44.83
2018-06-02T00:32:32.872Z,44.27
2018-06-02T00:35:00.456Z,42.90
2018-06-02T00:37:28.076Z,41.67
2018-06-02T00:39:55.662Z,42.00
2018-06-02T00:42:23.296Z,41.20
2018-06-02T00:44:50.876Z,40.73
2018-06-02T00:47:18.491Z,40.47
2018-06-02T00:49:46.835Z,40.40
2018-06-02T00:52:14.429Z,36.47
2018-06-02T00:54:53.896Z,36.87
2018-06-02T00:57:21.484Z,37.13
2018-06-02T00:59:49.121Z,40.33
2018-06-02T01:02:16.715Z,42.17
2018-06-02T01:04:44.393Z,35.57
2018-06-02T01:07:12.688Z,39.47
2018-06-02T01:09:41.253Z,37.77
2018-06-02T01:12:08.917Z,40.27
2018-06-02T01:14:36.506Z,48.05
2018-06-02T01:17:05.065Z,42.03
2018-06-02T01:19:33.595Z,38.37
2018-06-02T01:22:02.032Z,37.33
2018-06-02T01:24:30.515Z,41.90
2018-06-02T01:26:59.022Z,38.50
2018-06-02T01:29:26.609Z,39.20
2018-06-02T01:31:54.453Z,38.60
2018-06-02T01:34:23.029Z,40.70
2018-06-02T01:36:51.497Z,40.80
2018-06-02T01:39:20.042Z,38.40
2018-06-02T01:41:47.985Z,36.57
2018-06-02T01:44:16.338Z,40.13
2018-06-02T01:46:43.931Z,42.57
2018-06-02T01:49:12.364Z,41.20
2018-06-02T01:51:40.737Z,40.37
2018-06-02T01:54:09.177Z,39.00
2018-06-02T01:56:37.709Z,35.80
2018-06-02T01:59:06.172Z,36.37
2018-06-02T02:01:33.852Z,39.13
2018-06-02T02:04:01.513Z,42.97
2018-06-02T02:06:29.159Z,39.90
2018-06-02T02:08:56.746Z,41.13
2018-06-02T02:11:24.324Z,37.27
2018-06-02T02:13:52.715Z,41.27
2018-06-02T02:16:20.774Z,41.17
2018-06-02T02:18:49.285Z,41.83
2018-06-02T02:21:16.873Z,40.57
2018-06-02T02:23:44.485Z,39.47
2018-06-02T02:26:12.075Z,38.47
2018-06-02T02:28:39.717Z,38.33
2018-06-02T02:31:07.305Z,37.80
2018-06-02T02:33:34.909Z,39.67
2018-06-02T02:36:02.502Z,38.97
2018-06-02T02:38:30.952Z,38.00
2018-06-02T02:40:59.469Z,40.40
2018-06-02T02:43:27.862Z,37.77
2018-06-02T02:45:56.521Z,41.17
2018-06-02T02:48:24.110Z,38.40
2018-06-02T02:50:52.449Z,40.03
2018-06-02T02:53:20.033Z,39.20
2018-06-02T02:55:48.521Z,41.93
2018-06-02T02:58:16.813Z,42.17
2018-06-02T03:00:44.393Z,42.47
2018-06-02T03:03:11.978Z,39.93
2018-06-02T03:05:41.311Z,39.43
2018-06-02T03:08:09.860Z,41.90
2018-06-02T03:10:38.225Z,42.47
2018-06-02T03:13:06.592Z,37.47
2018-06-02T03:15:34.177Z,39.47
2018-06-02T03:18:02.691Z,38.90
2018-06-02T03:20:30.337Z,38.70
2018-06-02T03:22:58.876Z,40.73
2018-06-02T03:25:27.260Z,39.00
2018-06-02T03:27:55.758Z,39.47
2018-06-02T03:30:24.130Z,40.07
2018-06-02T03:32:51.771Z,42.50
2018-06-02T03:35:20.285Z,40.50
2018-06-02T03:37:47.897Z,41.90
2018-06-02T03:40:16.450Z,43.47
2018-06-02T03:42:45.025Z,40.47
2018-06-02T03:45:12.622Z,41.00
2018-06-02T03:47:41.125Z,40.10
2018-06-02T03:50:09.494Z,39.50
2018-06-02T03:52:37.981Z,40.60
2018-06-02T03:55:05.564Z,39.40
2018-06-02T03:57:34.068Z,40.80
2018-06-02T04:00:02.465Z,42.07
2018-06-02T04:02:30.830Z,41.60
2018-06-02T04:04:58.460Z,40.20
2018-06-02T04:07:26.735Z,41.80
2018-06-02T04:09:55.013Z,42.43
2018-06-02T04:12:23.374Z,40.10
2018-06-02T04:14:51.785Z,41.97
2018-06-02T04:17:19.374Z,39.60
2018-06-02T04:19:47.883Z,36.63
2018-06-02T04:22:15.501Z,38.60
2018-06-02T04:24:44.037Z,38.10
2018-06-02T04:27:11.661Z,37.93
2018-06-02T04:29:39.253Z,36.93
2018-06-02T04:32:07.712Z,34.00
2018-06-02T04:34:35.296Z,37.30
2018-06-02T04:37:03.088Z,36.20
2018-06-02T04:39:30.672Z,35.40
2018-06-02T04:41:59.166Z,35.70
2018-06-02T04:44:26.761Z,33.67
2018-06-02T04:46:54.492Z,34.13
2018-06-02T04:49:22.081Z,34.97
2018-06-02T04:51:50.638Z,35.13
2018-06-02T04:54:18.226Z,34.77
2018-06-02T04:56:46.658Z,34.10
2018-06-02T04:59:14.289Z,32.90
2018-06-02T05:01:41.877Z,33.47
2018-06-02T05:04:10.416Z,32.10
2018-06-02T05:06:38.003Z,34.00
2018-06-02T05:09:06.412Z,31.50
2018-06-02T05:11:34.784Z,32.57
2018-06-02T05:14:02.381Z,30.50
2018-06-02T05:16:29.965Z,29.17
2018-06-02T05:18:58.340Z,26.30
2018-06-02T05:21:25.931Z,25.80
2018-06-02T05:23:54.324Z,22.80
2018-06-02T05:26:22.087Z,23.20
2018-06-02T05:28:49.664Z,22.57
2018-06-02T05:31:17.247Z,22.70
2018-06-02T05:33:44.931Z,21.70
2018-06-02T05:36:12.565Z,22.57
2018-06-02T05:38:40.146Z,24.40
2018-06-02T05:41:07.729Z,21.93
2018-06-02T05:43:35.373Z,22.43
2018-06-02T05:46:02.981Z,19.80
2018-06-02T05:48:30.579Z,22.33
2018-06-02T05:50:58.212Z,20.93
2018-06-02T05:53:25.801Z,18.77
2018-06-02T05:55:54.201Z,18.60
2018-06-02T05:58:22.694Z,18.67
2018-06-02T06:00:51.063Z,17.27
2018-06-02T06:03:19.349Z,16.90
2018-06-02T06:05:47.717Z,16.27
2018-06-02T06:08:16.085Z,15.40
2018-06-02T06:10:44.581Z,16.50
2018-06-02T06:13:12.245Z,14.47
2018-06-02T06:15:40.938Z,16.00
2018-06-02T06:18:08.525Z,14.27
2018-06-02T06:20:36.159Z,13.43
2018-06-02T06:23:03.780Z,12.10
2018-06-02T06:25:31.366Z,12.87
2018-06-02T06:27:58.991Z,13.00
2018-06-02T06:30:26.569Z,12.27
2018-06-02T06:32:54.173Z,11.40
2018-06-02T06:35:21.812Z,13.20
2018-06-02T06:37:49.665Z,11.10
2018-06-02T06:40:17.251Z,10.67
2018-06-02T06:42:45.583Z,10.87
2018-06-02T06:45:13.181Z,12.07
2018-06-02T06:47:41.677Z,11.33
2018-06-02T06:50:09.268Z,10.93
2018-06-02T06:52:36.897Z,11.03
2018-06-02T06:55:04.597Z,10.70
2018-06-02T06:57:33.037Z,12.27
2018-06-02T07:00:00.740Z,10.77
2018-06-02T07:02:28.318Z,9.67
2018-06-02T07:04:56.827Z,10.07
2018-06-02T07:07:25.198Z,10.67
2018-06-02T07:09:53.716Z,9.67
2018-06-02T07:12:21.357Z,9.40
2018-06-02T07:14:53.836Z,15.77
2018-06-02T07:17:28.252Z,11.37
2018-06-02T07:20:00.427Z,12.10
2018-06-02T07:22:28.054Z,9.40
2018-06-02T07:24:55.795Z,10.00
2018-06-02T07:27:24.109Z,10.37
2018-06-02T07:29:52.513Z,10.37
2018-06-02T07:32:20.813Z,9.53
2018-06-02T07:34:48.441Z,10.53
2018-06-02T07:37:16.024Z,9.40
2018-06-02T07:39:43.698Z,10.47
2018-06-02T07:42:12.065Z,10.77
2018-06-02T07:44:39.736Z,10.23
2018-06-02T07:47:08.233Z,9.90
2018-06-02T07:49:36.429Z,10.57
2018-06-02T07:52:04.722Z,10.93
2018-06-02T07:54:32.345Z,11.17
2018-06-02T07:57:00.865Z,8.80
2018-06-02T07:59:28.449Z,10.70
2018-06-02T08:01:56.077Z,9.87
2018-06-02T08:04:23.670Z,10.97
2018-06-02T08:06:52.174Z,11.30
2018-06-02T08:09:19.764Z,9.40
2018-06-02T08:11:47.384Z,11.63
2018-06-02T08:14:15.015Z,10.57
2018-06-02T08:16:43.306Z,11.17
2018-06-02T08:19:11.737Z,10.97
2018-06-02T08:21:40.241Z,11.93
2018-06-02T08:24:08.692Z,12.10
2018-06-02T08:26:37.046Z,13.37
2018-06-02T08:29:05.516Z,13.70
2018-06-02T08:31:33.097Z,14.57
2018-06-02T08:34:00.719Z,12.20
2018-06-02T08:36:28.312Z,13.17
2018-06-02T08:38:55.972Z,13.13
2018-06-02T08:41:24.452Z,12.80
2018-06-02T08:43:52.069Z,14.20
2018-06-02T08:46:19.652Z,14.30
2018-06-02T08:48:47.242Z,14.50
2018-06-02T08:51:14.859Z,14.13
2018-06-02T08:53:42.530Z,13.33
2018-06-02T08:56:10.109Z,15.47
2018-06-02T08:58:37.692Z,16.07
2018-06-02T09:01:05.380Z,15.53
2018-06-02T09:03:33.021Z,17.17
2018-06-02T09:06:00.608Z,20.60
2018-06-02T09:08:28.202Z,19.20
2018-06-02T09:10:56.746Z,18.07
2018-06-02T09:13:24.328Z,20.47
2018-06-02T09:15:51.954Z,20.00
2018-06-02T09:18:19.538Z,20.87
2018-06-02T09:20:47.126Z,21.10
2018-06-02T09:23:15.433Z,22.67
2018-06-02T09:25:44.022Z,21.00
2018-06-02T09:28:11.624Z,22.47
2018-06-02T09:30:39.209Z,23.60
2018-06-02T09:33:06.789Z,20.77
2018-06-02T09:35:34.369Z,24.07
2018-06-02T09:38:02.005Z,22.37
2018-06-02T09:40:29.592Z,22.60
2018-06-02T09:42:57.210Z,18.50
2018-06-02T09:45:24.876Z,20.87
2018-06-02T09:47:52.469Z,19.47
2018-06-02T09:50:20.052Z,20.90
2018-06-02T09:52:47.631Z,19.23
2018-06-02T09:55:15.213Z,19.50
2018-06-02T09:57:42.812Z,21.40
2018-06-02T10:00:11.325Z,22.13
2018-06-02T10:02:39.017Z,24.00
2018-06-02T10:05:06.689Z,20.77
2018-06-02T10:07:34.424Z,21.60
2018-06-02T10:10:02.165Z,19.70
2018-06-02T10:12:29.749Z,21.60
2018-06-02T10:14:57.329Z,21.57
2018-06-02T10:17:24.997Z,22.93
2018-06-02T10:19:52.577Z,21.30
2018-06-02T10:22:20.222Z,21.90
2018-06-02T10:24:47.813Z,22.30
2018-06-02T10:27:15.395Z,24.37
2018-06-02T10:29:43.852Z,21.77
2018-06-02T10:32:11.443Z,23.33
2018-06-02T10:34:39.034Z,25.27
2018-06-02T10:37:06.664Z,24.00
2018-06-02T10:39:34.306Z,22.37
2018-06-02T10:42:03.105Z,22.47
2018-06-02T10:44:30.735Z,22.53
2018-06-02T10:46:59.193Z,21.27
2018-06-02T10:49:26.833Z,21.17
2018-06-02T10:51:54.432Z,24.00
2018-06-02T10:54:22.017Z,82.03
2018-06-02T10:56:50.343Z,23.40
2018-06-02T10:59:18.210Z,25.67
2018-06-02T11:01:45.873Z,21.53
2018-06-02T11:04:13.484Z,21.87
2018-06-02T11:06:41.068Z,21.83
2018-06-02T11:09:08.697Z,20.70
2018-06-02T11:11:36.264Z,22.00
2018-06-02T11:14:03.886Z,20.17
2018-06-02T11:16:31.470Z,20.07
2018-06-02T11:18:59.140Z,22.07
2018-06-02T11:21:26.724Z,20.00
2018-06-02T11:23:54.316Z,19.70
2018-06-02T11:26:21.958Z,20.93
2018-06-02T11:28:49.544Z,19.00
2018-06-02T11:31:17.131Z,18.00
2018-06-02T11:33:44.813Z,18.77
2018-06-02T11:36:12.421Z,17.67
2018-06-02T11:38:40.013Z,16.07
2018-06-02T11:41:07.589Z,17.20
2018-06-02T11:43:35.194Z,15.87
2018-06-02T11:46:02.783Z,18.10
2018-06-02T11:48:30.417Z,16.60
2018-06-02T11:50:58.100Z,21.70
2018-06-02T11:53:25.680Z,21.00
2018-06-02T11:55:53.277Z,22.20
2018-06-02T11:58:20.858Z,21.77
2018-06-02T12:00:48.442Z,22.53
2018-06-02T12:03:16.016Z,24.00
2018-06-02T12:05:43.892Z,27.97
2018-06-02T12:08:12.402Z,23.20
2018-06-02T12:10:40.899Z,23.67
2018-06-02T12:13:08.554Z,22.27
2018-06-02T12:15:36.136Z,21.13
2018-06-02T12:18:04.092Z,21.83
2018-06-02T12:20:31.768Z,20.37
2018-06-02T12:22:59.328Z,22.93
2018-06-02T12:25:26.914Z,19.83
2018-06-02T12:27:54.553Z,21.13
2018-06-02T12:30:22.141Z,21.40
2018-06-02T12:32:49.730Z,18.20
2018-06-02T12:35:17.660Z,20.37
2018-06-02T12:37:45.289Z,20.73
2018-06-02T12:40:13.001Z,20.83
2018-06-02T12:42:40.569Z,23.20
2018-06-02T12:45:08.153Z,19.70
2018-06-02T12:47:35.745Z,21.57
2018-06-02T12:50:03.394Z,22.37
2018-06-02T12:52:30.981Z,20.23
2018-06-02T12:54:58.567Z,20.03
2018-06-02T12:57:26.177Z,21.63
2018-06-02T12:59:53.773Z,23.07
2018-06-02T13:02:21.353Z,21.70
2018-06-02T13:04:48.947Z,22.77
2018-06-02T13:07:16.536Z,23.17
2018-06-02T13:09:44.119Z,23.40
2018-06-02T13:12:12.462Z,23.83
2018-06-02T13:14:40.176Z,23.93
2018-06-02T13:17:07.825Z,25.87
2018-06-02T13:19:35.416Z,26.93
2018-06-02T13:22:02.998Z,26.60
2018-06-02T13:24:30.580Z,27.23
2018-06-02T13:26:58.253Z,28.17
2018-06-02T13:29:25.878Z,32.37
2018-06-02T13:31:53.468Z,32.07
2018-06-02T13:34:21.061Z,34.83
2018-06-02T13:36:48.649Z,34.70
2018-06-02T13:39:16.283Z,33.90
2018-06-02T13:41:43.945Z,36.60
2018-06-02T13:44:11.537Z,36.23
2018-06-02T13:46:39.121Z,35.07
2018-06-02T13:49:06.794Z,35.97
2018-06-02T13:51:34.382Z,35.27
2018-06-02T13:54:01.967Z,34.60
2018-06-02T13:56:30.385Z,36.07
2018-06-02T13:58:58.062Z,33.83
2018-06-02T14:01:25.677Z,34.47
2018-06-02T14:03:54.069Z,31.53
2018-06-02T14:06:21.669Z,31.10
2018-06-02T14:08:49.257Z,32.53
2018-06-02T14:11:17.733Z,29.27
2018-06-02T14:13:46.131Z,32.90
2018-06-02T14:16:13.756Z,32.27
2018-06-02T14:18:41.418Z,31.93
2018-06-02T14:21:09.733Z,31.87
2018-06-02T14:23:37.312Z,30.80
2018-06-02T14:26:04.903Z,29.20
2018-06-02T14:28:32.485Z,35.07
2018-06-02T14:31:00.865Z,32.60
2018-06-02T14:33:29.252Z,32.20
2018-06-02T14:35:57.615Z,31.97
2018-06-02T14:38:26.134Z,31.63
2018-06-02T14:40:54.577Z,32.20
2018-06-02T14:43:22.241Z,32.13
2018-06-02T14:45:50.009Z,31.40
2018-06-02T14:48:17.590Z,30.40
2018-06-02T14:50:45.231Z,34.07
2018-06-02T14:53:12.817Z,30.50
2018-06-02T14:55:41.020Z,29.40
2018-06-02T14:58:08.601Z,30.83
2018-06-02T15:00:36.185Z,29.97
2018-06-02T15:03:03.779Z,33.53
2018-06-02T15:05:31.400Z,31.97
2018-06-02T15:07:58.985Z,32.13
2018-06-02T15:10:26.637Z,32.03
2018-06-02T15:12:54.220Z,34.67
2018-06-02T15:15:21.845Z,30.83
2018-06-02T15:17:49.590Z,28.23
2018-06-02T15:20:17.185Z,29.80
2018-06-02T15:22:45.769Z,30.70
2018-06-02T15:25:14.361Z,28.80
2018-06-02T15:27:42.893Z,28.33
2018-06-02T15:30:10.474Z,29.57
2018-06-02T15:32:39.126Z,29.07
2018-06-02T15:35:12.483Z,27.13
2018-06-02T15:37:40.361Z,25.77
2018-06-02T15:40:09.201Z,26.20
2018-06-02T15:42:37.074Z,24.53
2018-06-02T15:45:05.834Z,22.20
2018-06-02T15:47:33.461Z,23.97
2018-06-02T15:50:01.045Z,20.53
2018-06-02T15:52:28.629Z,22.50
2018-06-02T15:54:57.988Z,22.13
2018-06-02T15:57:25.576Z,19.03
2018-06-02T15:59:53.210Z,19.53
2018-06-02T16:02:20.873Z,20.20
2018-06-02T16:04:49.615Z,18.10
2018-06-02T16:07:17.279Z,18.33
2018-06-02T16:09:44.893Z,17.13
2018-06-02T16:12:12.534Z,15.80
2018-06-02T16:14:40.158Z,18.10
2018-06-02T16:17:08.712Z,16.70
2018-06-02T16:19:36.304Z,15.83
2018-06-02T16:22:03.893Z,15.80
2018-06-02T16:24:31.473Z,15.27
2018-06-02T16:26:59.098Z,14.90
2018-06-02T16:29:27.471Z,14.97
2018-06-02T16:31:55.097Z,13.63
2018-06-02T16:34:23.501Z,13.37
2018-06-02T16:36:51.085Z,12.90
2018-06-02T16:39:18.669Z,14.73
2018-06-02T16:41:46.289Z,14.10
2018-06-02T16:44:13.869Z,13.33
2018-06-02T16:46:41.506Z,14.13
2018-06-02T16:49:09.090Z,13.80
2018-06-02T16:51:37.515Z,14.47
2018-06-02T16:54:05.789Z,14.73
2018-06-02T16:56:33.377Z,13.67
2018-06-02T16:59:00.966Z,15.87
2018-06-02T17:01:28.554Z,14.00
2018-06-02T17:03:56.138Z,15.53
2018-06-02T17:06:23.768Z,13.43
2018-06-02T17:08:51.463Z,15.10
2018-06-02T17:11:19.121Z,15.00
2018-06-02T17:13:46.718Z,14.73
2018-06-02T17:16:14.402Z,15.90
2018-06-02T17:18:42.015Z,15.03
2018-06-02T17:21:09.593Z,15.80
2018-06-02T17:23:37.189Z,14.43
2018-06-02T17:26:04.784Z,15.30
2018-06-02T17:28:32.373Z,16.30
2018-06-02T17:30:59.956Z,16.30
2018-06-02T17:33:27.581Z,17.13
2018-06-02T17:35:55.245Z,18.37
2018-06-02T17:38:23.726Z,18.70
2018-06-02T17:40:52.309Z,18.83
2018-06-02T17:43:20.890Z,18.60
2018-06-02T17:45:49.329Z,20.90
2018-06-02T17:48:16.959Z,19.47
2018-06-02T17:50:45.339Z,20.90
2018-06-02T17:53:12.987Z,20.00
2018-06-02T17:55:40.682Z,19.10
2018-06-02T17:58:08.314Z,19.40
2018-06-02T18:00:35.974Z,17.77
2018-06-02T18:03:03.558Z,18.70
2018-06-02T18:05:31.195Z,18.27
2018-06-02T18:07:58.853Z,19.33
2018-06-02T18:10:26.435Z,17.97
2018-06-02T18:12:54.029Z,20.10
2018-06-02T18:15:21.649Z,17.90
2018-06-02T18:17:49.234Z,20.40
2018-06-02T18:20:16.815Z,19.43
2018-06-02T18:22:45.322Z,21.57
2018-06-02T18:25:13.748Z,18.17
2018-06-02T18:27:42.604Z,20.93
2018-06-02T18:30:10.188Z,20.47
2018-06-02T18:32:37.773Z,19.83
2018-06-02T18:35:05.406Z,20.87
2018-06-02T18:37:32.997Z,20.37
2018-06-02T18:40:00.631Z,21.27
2018-06-02T18:42:29.043Z,21.20
2018-06-02T18:44:56.634Z,21.87
2018-06-02T18:47:24.214Z,21.63
2018-06-02T18:49:51.898Z,20.70
2018-06-02T18:52:19.493Z,23.20
2018-06-02T18:54:48.495Z,19.90
2018-06-02T18:57:16.391Z,20.77
2018-06-02T18:59:44.181Z,21.70
2018-06-02T19:02:12.423Z,22.20
2018-06-02T19:04:40.197Z,22.63
2018-06-02T19:07:07.782Z,23.80
2018-06-02T19:09:35.485Z,24.37
2018-06-02T19:12:03.151Z,23.07
2018-06-02T19:14:30.741Z,23.20
2018-06-02T19:16:58.330Z,22.70
2018-06-02T19:19:25.952Z,22.50
2018-06-02T19:21:54.282Z,23.07
2018-06-02T19:24:21.943Z,24.10
2018-06-02T19:26:50.422Z,23.00
2018-06-02T19:29:18.072Z,24.70
2018-06-02T19:31:45.751Z,24.27
2018-06-02T19:34:13.404Z,21.63
2018-06-02T19:36:41.078Z,23.53
2018-06-02T19:39:08.742Z,23.60
2018-06-02T19:41:36.399Z,24.53
2018-06-02T19:44:04.012Z,25.60
2018-06-02T19:46:32.527Z,24.03
2018-06-02T19:49:00.114Z,24.00
2018-06-02T19:51:27.697Z,24.80
2018-06-02T19:53:55.301Z,23.17
2018-06-02T19:56:23.152Z,23.70
2018-06-02T19:58:51.689Z,23.37
2018-06-02T20:01:19.537Z,23.10
2018-06-02T20:03:47.998Z,24.23
2018-06-02T20:06:16.780Z,25.40
2018-06-02T20:08:44.722Z,24.17
2018-06-02T20:11:12.515Z,23.63
2018-06-02T20:13:40.107Z,22.57
2018-06-02T20:16:07.731Z,25.43
2018-06-02T20:18:35.310Z,24.97
2018-06-02T20:21:02.942Z,26.20
2018-06-02T20:23:30.533Z,24.40
2018-06-02T20:25:58.149Z,26.00
2018-06-02T20:28:25.965Z,26.00
2018-06-02T20:30:53.550Z,26.20
2018-06-02T20:33:21.695Z,26.80
2018-06-02T20:35:50.015Z,24.80
2018-06-02T20:38:18.386Z,26.27
2018-06-02T20:40:47.293Z,24.93
2018-06-02T20:43:14.889Z,26.80
2018-06-02T20:45:44.457Z,26.87
2018-06-02T20:48:12.105Z,25.07
2018-06-02T20:50:39.770Z,25.50
2018-06-02T20:53:07.464Z,27.17
2018-06-02T20:55:35.832Z,25.37
2018-06-02T20:58:04.646Z,24.80
2018-06-02T21:00:32.432Z,23.87
2018-06-02T21:03:00.092Z,24.50
2018-06-02T21:05:28.278Z,24.50
2018-06-02T21:07:57.797Z,25.77
2018-06-02T21:10:25.390Z,24.50
2018-06-02T21:12:53.938Z,23.23
2018-06-02T21:15:21.627Z,24.03
2018-06-02T21:17:49.289Z,23.37
2018-06-02T21:20:18.236Z,24.20
2018-06-02T21:22:47.930Z,24.30
2018-06-02T21:25:15.557Z,21.80
2018-06-02T21:27:43.734Z,24.90
2018-06-02T21:30:12.317Z,24.33
2018-06-02T21:32:42.122Z,24.27
2018-06-02T21:35:13.212Z,23.50
2018-06-02T21:37:42.122Z,24.03
2018-06-02T21:40:11.023Z,25.03
2018-06-02T21:42:39.893Z,23.67
2018-06-02T21:45:10.995Z,24.53
2018-06-02T21:47:38.621Z,23.90
2018-06-02T21:50:07.019Z,21.63
2018-06-02T21:52:35.560Z,24.50
2018-06-02T21:55:03.947Z,23.27
2018-06-02T21:57:31.569Z,23.30
2018-06-02T21:59:59.146Z,22.40
2018-06-02T22:02:26.766Z,24.60
2018-06-02T22:04:54.361Z,22.80
2018-06-02T22:07:22.004Z,23.17
2018-06-02T22:09:49.665Z,22.03
2018-06-02T22:12:18.051Z,23.23
2018-06-02T22:14:46.680Z,23.37
2018-06-02T22:17:14.257Z,22.67
2018-06-02T22:19:42.014Z,22.77
2018-06-02T22:22:09.593Z,21.97
2018-06-02T22:24:37.255Z,20.57
2018-06-02T22:27:06.480Z,22.03
2018-06-02T22:29:34.847Z,21.00
2018-06-02T22:32:03.615Z,23.60
2018-06-02T22:34:31.313Z,24.57
2018-06-02T22:37:01.186Z,23.37
2018-06-02T22:39:29.712Z,25.83
2018-06-02T22:41:57.293Z,22.53
2018-06-02T22:44:24.884Z,21.57
2018-06-02T22:46:52.462Z,23.60
2018-06-02T22:49:20.076Z,23.20
2018-06-02T22:51:57.442Z,23.40
2018-06-02T22:54:25.083Z,25.00
2018-06-02T22:56:53.573Z,23.43
2018-06-02T22:59:21.949Z,25.23
2018-06-02T23:01:49.534Z,23.40
2018-06-02T23:04:17.233Z,23.07
2018-06-02T23:06:44.815Z,25.47
2018-06-02T23:09:12.393Z,24.90
2018-06-02T23:11:41.106Z,23.77
2018-06-02T23:14:10.432Z,22.10
2018-06-02T23:16:38.025Z,23.50
2018-06-02T23:19:07.096Z,23.77
2018-06-02T23:21:35.885Z,23.37
2018-06-02T23:24:04.915Z,23.20
2018-06-02T23:26:33.594Z,23.93
2018-06-02T23:29:02.787Z,25.97
2018-06-02T23:31:31.620Z,26.90
2018-06-02T23:33:59.356Z,24.57
2018-06-02T23:36:28.248Z,26.70
2018-06-02T23:38:56.430Z,24.57
2018-06-02T23:41:24.091Z,27.37
2018-06-02T23:43:51.681Z,25.97
2018-06-02T23:46:20.157Z,29.17
2018-06-02T23:48:48.530Z,28.47
2018-06-02T23:51:17.088Z,30.00
2018-06-02T23:53:45.376Z,28.80
2018-06-02T23:56:13.039Z,27.83
2018-06-02T23:58:41.555Z,29.30
